PWSweather.com
Personal Weather Stations
Station Observations
GRD01
Warsaw, LesznoPL 05-084

WarsawLesznoPL 05-084

Lat: 52.257404, Lon: 20.564847

Elevation: 298

Station Type: WH3080

http://pogoda.kampinos.waw.pl

High Low Average
Temperature 81.7°F27.6°C 61.3°F16.3°C 71.1°F21.7°C
Dew Point 64.1°F17.8°C 46.8°F8.2°C 55.8°F13.2°C
Winds 13.0 mph 20.9 kmh Calm Calm 3.0 mph SE4.8 kmh SE
Wind Gusts 16.8 mph27.0 kmh -- 6.0 mph9.7 kmh
Humidity 97% 31% 63%
Pressure 30.65 in1037.9 mb 30.55 in1034.5 mb -
Precipitation 0.01 in0.3 mm - -
Hour Temp Dew Point Humidity Winds Wind Gusts Pressure Precip Precip Rate Daily Precip Total
12:00 AM 63.9°F17.7°C 61.2°F16.2°C 91% 0.7 mph NW1.1 kmh NW 3.1 mph5.0 kmh 30.55 in1034.5 mb 0.00 in0.0 mm 0.00 in0.0 mm 0.00 in0.0 mm
12:05 AM 63.9°F17.7°C 61.2°F16.2°C 91% 1.6 mph NW2.6 kmh NW 2.2 mph3.5 kmh 30.11 in1019.6 mb 0.00 in0.0 mm 0.00 in0.0 mm 0.00 in0.0 mm
12:15 AM 63.9°F17.7°C 61.5°F16.4°C 92% 2.2 mph NNW3.5 kmh NNW 3.1 mph5.0 kmh 30.55 in1034.5 mb 0.00 in0.0 mm 0.00 in0.0 mm 0.00 in0.0 mm
12:30 AM 63.9°F17.7°C 61.5°F16.4°C 92% 2.2 mph NW3.5 kmh NW 3.8 mph6.1 kmh 30.56 in1034.9 mb 0.00 in0.0 mm 0.00 in0.0 mm 0.00 in0.0 mm
12:35 AM 63.9°F17.7°C 61.5°F16.4°C 92% 3.1 mph NW5.0 kmh NW 3.1 mph5.0 kmh 30.12 in1020.0 mb 0.00 in0.0 mm 0.00 in0.0 mm 0.00 in0.0 mm
12:45 AM 63.9°F17.7°C 61.5°F16.4°C 92% 0.7 mph W1.1 kmh W 3.8 mph6.1 kmh 30.56 in1034.9 mb 0.00 in0.0 mm 0.00 in0.0 mm 0.00 in0.0 mm
01:00 AM 63.7°F17.6°C 61.3°F16.3°C 92% Calm Calm 2.2 mph3.5 kmh 30.58 in1035.6 mb 0.00 in0.0 mm 0.00 in0.0 mm 0.00 in0.0 mm
01:05 AM 63.7°F17.6°C 61.3°F16.3°C 92% Calm Calm 0.7 mph1.1 kmh 30.13 in1020.3 mb 0.00 in0.0 mm 0.00 in0.0 mm 0.00 in0.0 mm
01:15 AM 63.5°F17.5°C 61.1°F16.2°C 92% 1.6 mph W2.6 kmh W 2.2 mph3.5 kmh 30.57 in1035.2 mb 0.00 in0.0 mm 0.00 in0.0 mm 0.00 in0.0 mm
01:30 AM 63.3°F17.4°C 61.6°F16.4°C 94% 0.7 mph NW1.1 kmh NW 1.6 mph2.6 kmh 30.58 in1035.6 mb 0.00 in0.0 mm 0.00 in0.0 mm 0.00 in0.0 mm
01:35 AM 63.3°F17.4°C 61.6°F16.4°C 94% 0.7 mph NW1.1 kmh NW 1.6 mph2.6 kmh 30.13 in1020.3 mb 0.00 in0.0 mm 0.00 in0.0 mm 0.00 in0.0 mm
01:45 AM 63.1°F17.3°C 61.4°F16.3°C 94% Calm Calm 1.6 mph2.6 kmh 30.57 in1035.2 mb 0.00 in0.0 mm 0.00 in0.0 mm 0.00 in0.0 mm
02:00 AM 63.0°F17.2°C 61.2°F16.2°C 94% Calm Calm 1.6 mph2.6 kmh 30.57 in1035.2 mb 0.00 in0.0 mm 0.00 in0.0 mm 0.00 in0.0 mm
02:05 AM 63.0°F17.2°C 61.2°F16.2°C 94% Calm Calm 0.7 mph1.1 kmh 30.13 in1020.3 mb 0.00 in0.0 mm 0.00 in0.0 mm 0.00 in0.0 mm
02:15 AM 62.8°F17.1°C 61.0°F16.1°C 94% Calm Calm 3.1 mph5.0 kmh 30.58 in1035.6 mb 0.00 in0.0 mm 0.00 in0.0 mm 0.00 in0.0 mm
02:30 AM 62.6°F17.0°C 60.8°F16.0°C 94% Calm Calm -- 30.58 in1035.6 mb 0.00 in0.0 mm 0.00 in0.0 mm 0.00 in0.0 mm
02:35 AM 62.6°F17.0°C 60.8°F16.0°C 94% Calm Calm -- 30.14 in1020.7 mb 0.00 in0.0 mm 0.00 in0.0 mm 0.00 in0.0 mm
02:45 AM 62.2°F16.8°C 60.5°F15.8°C 94% Calm Calm 1.6 mph2.6 kmh 30.58 in1035.6 mb 0.01 in0.3 mm 0.06 in1.5 mm 0.01 in0.3 mm
03:00 AM 62.2°F16.8°C 60.5°F15.8°C 94% Calm Calm 1.6 mph2.6 kmh 30.58 in1035.6 mb 0.01 in0.3 mm 0.00 in0.0 mm 0.01 in0.3 mm
03:05 AM 62.2°F16.8°C 60.5°F15.8°C 94% Calm Calm -- 30.14 in1020.7 mb 0.01 in0.3 mm 0.00 in0.0 mm 0.01 in0.3 mm
03:15 AM 62.2°F16.8°C 60.8°F16.0°C 95% 0.7 mph SE1.1 kmh SE 2.2 mph3.5 kmh 30.59 in1035.9 mb 0.01 in0.3 mm 0.00 in0.0 mm 0.01 in0.3 mm
03:30 AM 62.4°F16.9°C 61.0°F16.1°C 95% 3.1 mph WSW5.0 kmh WSW 3.8 mph6.1 kmh 30.58 in1035.6 mb 0.01 in0.3 mm 0.00 in0.0 mm 0.01 in0.3 mm
03:35 AM 62.2°F16.8°C 60.8°F16.0°C 95% 3.1 mph NW5.0 kmh NW 3.8 mph6.1 kmh 30.14 in1020.7 mb 0.01 in0.3 mm 0.00 in0.0 mm 0.01 in0.3 mm
03:45 AM 62.8°F17.1°C 61.6°F16.4°C 96% 3.1 mph NW5.0 kmh NW 6.9 mph11.1 kmh 30.59 in1035.9 mb 0.00 in0.0 mm 0.00 in0.0 mm 0.01 in0.3 mm
04:00 AM 62.6°F17.0°C 61.4°F16.3°C 96% 0.7 mph NNW1.1 kmh NNW 4.5 mph7.2 kmh 30.59 in1035.9 mb 0.00 in0.0 mm 0.00 in0.0 mm 0.01 in0.3 mm
04:05 AM 62.6°F17.0°C 61.4°F16.3°C 96% 2.2 mph N3.5 kmh N 3.1 mph5.0 kmh 30.14 in1020.7 mb 0.00 in0.0 mm 0.00 in0.0 mm 0.01 in0.3 mm
04:15 AM 62.1°F16.7°C 60.6°F15.9°C 95% 0.7 mph N1.1 kmh N 1.6 mph2.6 kmh 30.60 in1036.2 mb 0.00 in0.0 mm 0.00 in0.0 mm 0.01 in0.3 mm
04:30 AM 61.5°F16.4°C 60.1°F15.6°C 95% 0.7 mph WSW1.1 kmh WSW 3.8 mph6.1 kmh 30.60 in1036.2 mb 0.00 in0.0 mm 0.00 in0.0 mm 0.01 in0.3 mm
04:35 AM 61.5°F16.4°C 60.1°F15.6°C 95% 1.6 mph W2.6 kmh W 2.2 mph3.5 kmh 30.16 in1021.3 mb 0.00 in0.0 mm 0.00 in0.0 mm 0.01 in0.3 mm
04:45 AM 61.5°F16.4°C 60.1°F15.6°C 95% 2.2 mph W3.5 kmh W 3.1 mph5.0 kmh 30.61 in1036.6 mb 0.00 in0.0 mm 0.00 in0.0 mm 0.01 in0.3 mm
05:00 AM 61.3°F16.3°C 59.9°F15.5°C 95% 2.2 mph NW3.5 kmh NW 3.8 mph6.1 kmh 30.61 in1036.6 mb 0.00 in0.0 mm 0.00 in0.0 mm 0.01 in0.3 mm
05:05 AM 61.3°F16.3°C 59.9°F15.5°C 95% 1.6 mph N2.6 kmh N 3.8 mph6.1 kmh 30.16 in1021.3 mb 0.00 in0.0 mm 0.00 in0.0 mm 0.01 in0.3 mm
05:15 AM 61.7°F16.5°C 60.5°F15.8°C 96% Calm Calm 4.5 mph7.2 kmh 30.62 in1036.9 mb 0.00 in0.0 mm 0.00 in0.0 mm 0.01 in0.3 mm
05:30 AM 62.1°F16.7°C 60.9°F16.1°C 96% Calm Calm 2.2 mph3.5 kmh 30.62 in1036.9 mb 0.00 in0.0 mm 0.00 in0.0 mm 0.01 in0.3 mm
05:35 AM 62.1°F16.7°C 60.9°F16.1°C 96% Calm Calm -- 30.17 in1021.7 mb 0.00 in0.0 mm 0.00 in0.0 mm 0.01 in0.3 mm
05:45 AM 62.2°F16.8°C 61.1°F16.2°C 96% 0.7 mph W1.1 kmh W 1.6 mph2.6 kmh 30.61 in1036.6 mb 0.00 in0.0 mm 0.00 in0.0 mm 0.01 in0.3 mm
06:00 AM 62.2°F16.8°C 61.1°F16.2°C 96% Calm Calm 0.7 mph1.1 kmh 30.62 in1036.9 mb 0.00 in0.0 mm 0.00 in0.0 mm 0.01 in0.3 mm
06:05 AM 62.2°F16.8°C 61.1°F16.2°C 96% Calm Calm 0.7 mph1.1 kmh 30.17 in1021.7 mb 0.00 in0.0 mm 0.00 in0.0 mm 0.01 in0.3 mm
06:15 AM 62.4°F16.9°C 61.3°F16.3°C 96% 1.6 mph S2.6 kmh S 3.8 mph6.1 kmh 30.63 in1037.3 mb 0.00 in0.0 mm 0.00 in0.0 mm 0.01 in0.3 mm
06:30 AM 62.6°F17.0°C 61.7°F16.5°C 97% Calm Calm 0.7 mph1.1 kmh 30.63 in1037.3 mb 0.00 in0.0 mm 0.00 in0.0 mm 0.01 in0.3 mm
06:35 AM 62.6°F17.0°C 61.7°F16.5°C 97% Calm Calm 0.7 mph1.1 kmh 30.19 in1022.4 mb 0.00 in0.0 mm 0.00 in0.0 mm 0.01 in0.3 mm
06:45 AM 63.0°F17.2°C 62.1°F16.7°C 97% 0.7 mph S1.1 kmh S 3.1 mph5.0 kmh 30.64 in1037.6 mb 0.00 in0.0 mm 0.00 in0.0 mm 0.01 in0.3 mm
07:00 AM 63.3°F17.4°C 62.5°F16.9°C 97% Calm Calm 0.7 mph1.1 kmh 30.63 in1037.3 mb 0.00 in0.0 mm 0.00 in0.0 mm 0.01 in0.3 mm
07:05 AM 63.3°F17.4°C 62.5°F16.9°C 97% Calm Calm 0.7 mph1.1 kmh 30.19 in1022.4 mb 0.00 in0.0 mm 0.00 in0.0 mm 0.01 in0.3 mm
07:15 AM 65.1°F18.4°C 63.7°F17.6°C 95% 1.6 mph WSW2.6 kmh WSW 2.2 mph3.5 kmh 30.63 in1037.3 mb 0.00 in0.0 mm 0.00 in0.0 mm 0.01 in0.3 mm
07:30 AM 66.2°F19.0°C 64.1°F17.8°C 93% 0.7 mph NW1.1 kmh NW 3.1 mph5.0 kmh 30.63 in1037.3 mb 0.00 in0.0 mm 0.00 in0.0 mm 0.01 in0.3 mm
07:35 AM 66.0°F18.9°C 63.9°F17.7°C 93% 2.2 mph N3.5 kmh N 3.1 mph5.0 kmh 30.19 in1022.4 mb 0.00 in0.0 mm 0.00 in0.0 mm 0.01 in0.3 mm
07:45 AM 67.1°F19.5°C 64.1°F17.8°C 90% 2.2 mph E3.5 kmh E 3.8 mph6.1 kmh 30.64 in1037.6 mb 0.00 in0.0 mm 0.00 in0.0 mm 0.01 in0.3 mm
08:00 AM 67.8°F19.9°C 62.8°F17.1°C 84% 2.2 mph S3.5 kmh S 3.1 mph5.0 kmh 30.64 in1037.6 mb 0.00 in0.0 mm 0.00 in0.0 mm 0.01 in0.3 mm
08:05 AM 67.6°F19.8°C 63.0°F17.2°C 85% 2.2 mph SW3.5 kmh SW 3.1 mph5.0 kmh 30.19 in1022.4 mb 0.00 in0.0 mm 0.00 in0.0 mm 0.01 in0.3 mm
08:15 AM 68.2°F20.1°C 62.5°F16.9°C 82% 0.7 mph S1.1 kmh S 2.2 mph3.5 kmh 30.64 in1037.6 mb 0.00 in0.0 mm 0.00 in0.0 mm 0.01 in0.3 mm
08:30 AM 68.9°F20.5°C 62.5°F16.9°C 80% 0.7 mph S1.1 kmh S 3.1 mph5.0 kmh 30.64 in1037.6 mb 0.00 in0.0 mm 0.00 in0.0 mm 0.01 in0.3 mm
08:35 AM 68.5°F20.3°C 62.5°F16.9°C 81% 2.2 mph S3.5 kmh S 3.1 mph5.0 kmh 30.21 in1023.0 mb 0.00 in0.0 mm 0.00 in0.0 mm 0.01 in0.3 mm
08:45 AM 70.0°F21.1°C 62.4°F16.9°C 77% 1.6 mph S2.6 kmh S 3.1 mph5.0 kmh 30.64 in1037.6 mb 0.00 in0.0 mm 0.00 in0.0 mm 0.01 in0.3 mm
09:00 AM 70.5°F21.4°C 61.8°F16.6°C 74% 1.6 mph SSE2.6 kmh SSE 4.5 mph7.2 kmh 30.64 in1037.6 mb 0.00 in0.0 mm 0.00 in0.0 mm 0.01 in0.3 mm
09:05 AM 70.3°F21.3°C 61.7°F16.5°C 74% 2.2 mph SE3.5 kmh SE 3.8 mph6.1 kmh 30.20 in1022.7 mb 0.00 in0.0 mm 0.00 in0.0 mm 0.01 in0.3 mm
09:15 AM 71.6°F22.0°C 62.1°F16.7°C 72% 1.6 mph SSW2.6 kmh SSW 5.4 mph8.7 kmh 30.64 in1037.6 mb 0.00 in0.0 mm 0.00 in0.0 mm 0.01 in0.3 mm
09:30 AM 72.3°F22.4°C 62.0°F16.7°C 70% 4.5 mph SSW7.2 kmh SSW 6.9 mph11.1 kmh 30.64 in1037.6 mb 0.00 in0.0 mm 0.00 in0.0 mm 0.01 in0.3 mm
09:35 AM 72.3°F22.4°C 62.4°F16.9°C 71% 0.7 mph S1.1 kmh S 1.6 mph2.6 kmh 30.19 in1022.4 mb 0.00 in0.0 mm 0.00 in0.0 mm 0.01 in0.3 mm
09:45 AM 72.5°F22.5°C 59.6°F15.3°C 64% 1.6 mph S2.6 kmh S 3.8 mph6.1 kmh 30.64 in1037.6 mb 0.00 in0.0 mm 0.00 in0.0 mm 0.01 in0.3 mm
10:00 AM 73.0°F22.8°C 60.1°F15.6°C 64% 1.6 mph S2.6 kmh S 5.4 mph8.7 kmh 30.64 in1037.6 mb 0.00 in0.0 mm 0.00 in0.0 mm 0.01 in0.3 mm
10:05 AM 72.9°F22.7°C 60.0°F15.6°C 64% 2.2 mph S3.5 kmh S 3.1 mph5.0 kmh 30.19 in1022.4 mb 0.00 in0.0 mm 0.00 in0.0 mm 0.01 in0.3 mm
10:15 AM 73.8°F23.2°C 59.9°F15.5°C 62% 1.6 mph SE2.6 kmh SE 5.4 mph8.7 kmh 30.63 in1037.3 mb 0.00 in0.0 mm 0.00 in0.0 mm 0.01 in0.3 mm
10:30 AM 74.8°F23.8°C 60.0°F15.6°C 60% 3.8 mph S6.1 kmh S 6.0 mph9.7 kmh 30.65 in1037.9 mb 0.00 in0.0 mm 0.00 in0.0 mm 0.01 in0.3 mm
10:35 AM 74.8°F23.8°C 60.5°F15.8°C 61% 3.1 mph SE5.0 kmh SE 4.5 mph7.2 kmh 30.20 in1022.7 mb 0.00 in0.0 mm 0.00 in0.0 mm 0.01 in0.3 mm
10:45 AM 74.8°F23.8°C 59.5°F15.3°C 59% 2.2 mph S3.5 kmh S 4.5 mph7.2 kmh 30.65 in1037.9 mb 0.00 in0.0 mm 0.00 in0.0 mm 0.01 in0.3 mm
11:00 AM 75.0°F23.9°C 57.8°F14.3°C 55% 3.8 mph S6.1 kmh S 7.6 mph12.2 kmh 30.64 in1037.6 mb 0.00 in0.0 mm 0.00 in0.0 mm 0.01 in0.3 mm
11:05 AM 75.0°F23.9°C 57.8°F14.3°C 55% 4.5 mph S7.2 kmh S 6.0 mph9.7 kmh 30.20 in1022.7 mb 0.00 in0.0 mm 0.00 in0.0 mm 0.01 in0.3 mm
11:15 AM 75.7°F24.3°C 58.4°F14.7°C 55% 2.2 mph SE3.5 kmh SE 4.5 mph7.2 kmh 30.65 in1037.9 mb 0.00 in0.0 mm 0.00 in0.0 mm 0.01 in0.3 mm
11:30 AM 75.9°F24.4°C 57.6°F14.2°C 53% Calm Calm 5.4 mph8.7 kmh 30.64 in1037.6 mb 0.00 in0.0 mm 0.00 in0.0 mm 0.01 in0.3 mm
11:35 AM 75.9°F24.4°C 57.6°F14.2°C 53% 2.2 mph S3.5 kmh S 3.8 mph6.1 kmh 30.20 in1022.7 mb 0.00 in0.0 mm 0.00 in0.0 mm 0.01 in0.3 mm
11:45 AM 75.7°F24.3°C 57.4°F14.1°C 53% 3.1 mph SE5.0 kmh SE 6.9 mph11.1 kmh 30.65 in1037.9 mb 0.00 in0.0 mm 0.00 in0.0 mm 0.01 in0.3 mm
12:00 PM 76.1°F24.5°C 57.7°F14.3°C 53% 1.6 mph SSW2.6 kmh SSW 4.5 mph7.2 kmh 30.64 in1037.6 mb 0.00 in0.0 mm 0.00 in0.0 mm 0.01 in0.3 mm
12:05 PM 75.9°F24.4°C 57.0°F13.9°C 52% 1.6 mph S2.6 kmh S 3.1 mph5.0 kmh 30.21 in1023.0 mb 0.00 in0.0 mm 0.00 in0.0 mm 0.01 in0.3 mm
12:15 PM 77.7°F25.4°C 58.1°F14.5°C 51% 0.7 mph SE1.1 kmh SE 4.5 mph7.2 kmh 30.64 in1037.6 mb 0.00 in0.0 mm 0.00 in0.0 mm 0.01 in0.3 mm
12:30 PM 77.4°F25.2°C 56.7°F13.7°C 49% Calm Calm 6.0 mph9.7 kmh 30.64 in1037.6 mb 0.00 in0.0 mm 0.00 in0.0 mm 0.01 in0.3 mm
12:35 PM 77.4°F25.2°C 57.3°F14.1°C 50% 0.7 mph N1.1 kmh N 3.1 mph5.0 kmh 30.20 in1022.7 mb 0.00 in0.0 mm 0.00 in0.0 mm 0.01 in0.3 mm
12:45 PM 78.3°F25.7°C 55.2°F12.9°C 45% 7.6 mph SE12.2 kmh SE 11.4 mph18.3 kmh 30.64 in1037.6 mb 0.00 in0.0 mm 0.00 in0.0 mm 0.01 in0.3 mm
01:00 PM 78.8°F26.0°C 55.7°F13.2°C 45% 4.5 mph SE7.2 kmh SE 7.6 mph12.2 kmh 30.64 in1037.6 mb 0.00 in0.0 mm 0.00 in0.0 mm 0.01 in0.3 mm
01:05 PM 78.8°F26.0°C 55.7°F13.2°C 45% 4.5 mph SE7.2 kmh SE 5.4 mph8.7 kmh 30.19 in1022.4 mb 0.00 in0.0 mm 0.00 in0.0 mm 0.01 in0.3 mm
01:15 PM 80.2°F26.8°C 55.7°F13.2°C 43% 3.8 mph SSE6.1 kmh SSE 8.3 mph13.4 kmh 30.63 in1037.3 mb 0.00 in0.0 mm 0.00 in0.0 mm 0.01 in0.3 mm
01:30 PM 80.4°F26.9°C 55.2°F12.9°C 42% 3.8 mph SE6.1 kmh SE 6.0 mph9.7 kmh 30.63 in1037.3 mb 0.00 in0.0 mm 0.00 in0.0 mm 0.01 in0.3 mm
01:35 PM 80.4°F26.9°C 55.9°F13.3°C 43% 3.8 mph SE6.1 kmh SE 4.5 mph7.2 kmh 30.19 in1022.4 mb 0.00 in0.0 mm 0.00 in0.0 mm 0.01 in0.3 mm
01:45 PM 79.7°F26.5°C 54.6°F12.6°C 42% 0.7 mph N1.1 kmh N 8.3 mph13.4 kmh 30.64 in1037.6 mb 0.00 in0.0 mm 0.00 in0.0 mm 0.01 in0.3 mm
02:00 PM 80.1°F26.7°C 53.6°F12.0°C 40% 3.8 mph NNE6.1 kmh NNE 10.7 mph17.2 kmh 30.62 in1036.9 mb 0.00 in0.0 mm 0.00 in0.0 mm 0.01 in0.3 mm
02:05 PM 79.9°F26.6°C 53.4°F11.9°C 40% 6.9 mph NE11.1 kmh NE 9.2 mph14.8 kmh 30.18 in1022.0 mb 0.00 in0.0 mm 0.00 in0.0 mm 0.01 in0.3 mm
02:15 PM 80.2°F26.8°C 53.7°F12.1°C 40% 4.5 mph N7.2 kmh N 10.7 mph17.2 kmh 30.63 in1037.3 mb 0.00 in0.0 mm 0.00 in0.0 mm 0.01 in0.3 mm
02:30 PM 80.2°F26.8°C 52.3°F11.3°C 38% 1.6 mph NW2.6 kmh NW 5.4 mph8.7 kmh 30.62 in1036.9 mb 0.00 in0.0 mm 0.00 in0.0 mm 0.01 in0.3 mm
02:35 PM 80.2°F26.8°C 53.0°F11.7°C 39% 2.2 mph NW3.5 kmh NW 3.1 mph5.0 kmh 30.18 in1022.0 mb 0.00 in0.0 mm 0.00 in0.0 mm 0.01 in0.3 mm
02:45 PM 80.8°F27.1°C 51.3°F10.7°C 36% 3.8 mph NE6.1 kmh NE 9.8 mph15.8 kmh 30.62 in1036.9 mb 0.00 in0.0 mm 0.00 in0.0 mm 0.01 in0.3 mm
03:00 PM 80.8°F27.1°C 50.6°F10.3°C 35% 0.7 mph NE1.1 kmh NE 9.8 mph15.8 kmh 30.61 in1036.6 mb 0.00 in0.0 mm 0.00 in0.0 mm 0.01 in0.3 mm
03:05 PM 80.6°F27.0°C 49.6°F9.8°C 34% 2.2 mph NE3.5 kmh NE 3.1 mph5.0 kmh 30.17 in1021.7 mb 0.00 in0.0 mm 0.00 in0.0 mm 0.01 in0.3 mm
03:15 PM 81.7°F27.6°C 48.1°F8.9°C 31% 3.8 mph ENE6.1 kmh ENE 8.3 mph13.4 kmh 30.62 in1036.9 mb 0.00 in0.0 mm 0.00 in0.0 mm 0.01 in0.3 mm
03:30 PM 81.3°F27.4°C 49.5°F9.7°C 33% 3.8 mph NE6.1 kmh NE 9.2 mph14.8 kmh 30.61 in1036.6 mb 0.00 in0.0 mm 0.00 in0.0 mm 0.01 in0.3 mm
03:35 PM 81.5°F27.5°C 47.9°F8.8°C 31% 3.1 mph S5.0 kmh S 4.5 mph7.2 kmh 30.18 in1022.0 mb 0.00 in0.0 mm 0.00 in0.0 mm 0.01 in0.3 mm
03:45 PM 80.4°F26.9°C 49.5°F9.7°C 34% 6.0 mph N9.7 kmh N 9.8 mph15.8 kmh 30.62 in1036.9 mb 0.00 in0.0 mm 0.00 in0.0 mm 0.01 in0.3 mm
04:00 PM 79.9°F26.6°C 49.8°F9.9°C 35% 5.4 mph N8.7 kmh N 9.2 mph14.8 kmh 30.62 in1036.9 mb 0.00 in0.0 mm 0.00 in0.0 mm 0.01 in0.3 mm
04:05 PM 79.9°F26.6°C 49.0°F9.4°C 34% 3.1 mph N5.0 kmh N 3.8 mph6.1 kmh 30.17 in1021.7 mb 0.00 in0.0 mm 0.00 in0.0 mm 0.01 in0.3 mm
04:15 PM 79.9°F26.6°C 49.0°F9.4°C 34% 3.8 mph NNE6.1 kmh NNE 9.2 mph14.8 kmh 30.62 in1036.9 mb 0.00 in0.0 mm 0.00 in0.0 mm 0.01 in0.3 mm
04:30 PM 79.3°F26.3°C 49.3°F9.6°C 35% 5.4 mph NNE8.7 kmh NNE 9.8 mph15.8 kmh 30.61 in1036.6 mb 0.00 in0.0 mm 0.00 in0.0 mm 0.01 in0.3 mm
04:35 PM 79.5°F26.4°C 48.7°F9.3°C 34% 5.4 mph N8.7 kmh N 6.0 mph9.7 kmh 30.17 in1021.7 mb 0.00 in0.0 mm 0.00 in0.0 mm 0.01 in0.3 mm
04:45 PM 79.2°F26.2°C 49.1°F9.5°C 35% 6.0 mph NNE9.7 kmh NNE 9.2 mph14.8 kmh 30.61 in1036.6 mb 0.00 in0.0 mm 0.00 in0.0 mm 0.01 in0.3 mm
05:00 PM 79.7°F26.5°C 49.6°F9.8°C 35% 3.1 mph NNE5.0 kmh NNE 6.9 mph11.1 kmh 30.61 in1036.6 mb 0.00 in0.0 mm 0.00 in0.0 mm 0.01 in0.3 mm
05:05 PM 79.5°F26.4°C 49.5°F9.7°C 35% 4.5 mph NE7.2 kmh NE 6.9 mph11.1 kmh 30.17 in1021.7 mb 0.00 in0.0 mm 0.00 in0.0 mm 0.01 in0.3 mm
05:15 PM 79.5°F26.4°C 48.7°F9.3°C 34% 6.0 mph NE9.7 kmh NE 9.8 mph15.8 kmh 30.62 in1036.9 mb 0.00 in0.0 mm 0.00 in0.0 mm 0.01 in0.3 mm
05:30 PM 78.8°F26.0°C 48.8°F9.3°C 35% 4.5 mph NE7.2 kmh NE 6.0 mph9.7 kmh 30.62 in1036.9 mb 0.00 in0.0 mm 0.00 in0.0 mm 0.01 in0.3 mm
05:35 PM 78.8°F26.0°C 48.8°F9.3°C 35% 3.8 mph N6.1 kmh N 5.4 mph8.7 kmh 30.18 in1022.0 mb 0.00 in0.0 mm 0.00 in0.0 mm 0.01 in0.3 mm
05:45 PM 77.7°F25.4°C 48.6°F9.2°C 36% 8.3 mph NNE13.4 kmh NNE 12.1 mph19.5 kmh 30.61 in1036.6 mb 0.00 in0.0 mm 0.00 in0.0 mm 0.01 in0.3 mm
06:00 PM 76.8°F24.9°C 48.6°F9.2°C 37% 6.9 mph NNE11.1 kmh NNE 9.2 mph14.8 kmh 30.61 in1036.6 mb 0.00 in0.0 mm 0.00 in0.0 mm 0.01 in0.3 mm
06:05 PM 77.0°F25.0°C 48.0°F8.9°C 36% 4.5 mph N7.2 kmh N 6.0 mph9.7 kmh 30.17 in1021.7 mb 0.00 in0.0 mm 0.00 in0.0 mm 0.01 in0.3 mm
06:15 PM 75.9°F24.4°C 48.5°F9.2°C 38% 4.5 mph NNE7.2 kmh NNE 7.6 mph12.2 kmh 30.61 in1036.6 mb 0.00 in0.0 mm 0.00 in0.0 mm 0.01 in0.3 mm
06:30 PM 75.2°F24.0°C 47.8°F8.8°C 38% 6.0 mph NNE9.7 kmh NNE 9.8 mph15.8 kmh 30.61 in1036.6 mb 0.00 in0.0 mm 0.00 in0.0 mm 0.01 in0.3 mm
06:35 PM 75.4°F24.1°C 48.0°F8.9°C 38% 6.0 mph N9.7 kmh N 8.3 mph13.4 kmh 30.17 in1021.7 mb 0.00 in0.0 mm 0.00 in0.0 mm 0.01 in0.3 mm
06:45 PM 74.5°F23.6°C 48.6°F9.2°C 40% 5.4 mph N8.7 kmh N 6.9 mph11.1 kmh 30.62 in1036.9 mb 0.00 in0.0 mm 0.00 in0.0 mm 0.01 in0.3 mm
07:00 PM 74.1°F23.4°C 48.2°F9.0°C 40% 8.3 mph N13.4 kmh N 9.8 mph15.8 kmh 30.62 in1036.9 mb 0.00 in0.0 mm 0.00 in0.0 mm 0.01 in0.3 mm
07:05 PM 74.1°F23.4°C 48.2°F9.0°C 40% 8.3 mph N13.4 kmh N 9.8 mph15.8 kmh 30.18 in1022.0 mb 0.00 in0.0 mm 0.00 in0.0 mm 0.01 in0.3 mm
07:15 PM 73.4°F23.0°C 47.6°F8.7°C 40% 3.8 mph N6.1 kmh N 7.6 mph12.2 kmh 30.62 in1036.9 mb 0.00 in0.0 mm 0.00 in0.0 mm 0.01 in0.3 mm
07:30 PM 73.0°F22.8°C 47.3°F8.5°C 40% 4.5 mph NNE7.2 kmh NNE 6.9 mph11.1 kmh 30.61 in1036.6 mb 0.00 in0.0 mm 0.00 in0.0 mm 0.01 in0.3 mm
07:35 PM 73.0°F22.8°C 47.3°F8.5°C 40% 4.5 mph N7.2 kmh N 6.0 mph9.7 kmh 30.18 in1022.0 mb 0.00 in0.0 mm 0.00 in0.0 mm 0.01 in0.3 mm
07:45 PM 73.0°F22.8°C 47.3°F8.5°C 40% 3.8 mph N6.1 kmh N 9.2 mph14.8 kmh 30.63 in1037.3 mb 0.00 in0.0 mm 0.00 in0.0 mm 0.01 in0.3 mm
08:00 PM 72.7°F22.6°C 47.0°F8.3°C 40% 5.4 mph N8.7 kmh N 6.9 mph11.1 kmh 30.62 in1036.9 mb 0.00 in0.0 mm 0.00 in0.0 mm 0.01 in0.3 mm
08:05 PM 72.7°F22.6°C 47.0°F8.3°C 40% 4.5 mph N7.2 kmh N 5.4 mph8.7 kmh 30.17 in1021.7 mb 0.00 in0.0 mm 0.00 in0.0 mm 0.01 in0.3 mm
08:15 PM 72.5°F22.5°C 46.8°F8.2°C 40% 5.4 mph NNE8.7 kmh NNE 9.2 mph14.8 kmh 30.61 in1036.6 mb 0.00 in0.0 mm 0.00 in0.0 mm 0.01 in0.3 mm
08:30 PM 72.9°F22.7°C 47.1°F8.4°C 40% 6.0 mph NE9.7 kmh NE 9.8 mph15.8 kmh 30.61 in1036.6 mb 0.00 in0.0 mm 0.00 in0.0 mm 0.01 in0.3 mm
08:35 PM 72.9°F22.7°C 47.1°F8.4°C 40% 6.9 mph NE11.1 kmh NE 9.8 mph15.8 kmh 30.16 in1021.3 mb 0.00 in0.0 mm 0.00 in0.0 mm 0.01 in0.3 mm
08:45 PM 73.0°F22.8°C 47.3°F8.5°C 40% 5.4 mph NNE8.7 kmh NNE 10.7 mph17.2 kmh 30.61 in1036.6 mb 0.00 in0.0 mm 0.00 in0.0 mm 0.01 in0.3 mm
09:00 PM 72.9°F22.7°C 47.8°F8.8°C 41% 5.4 mph NNE8.7 kmh NNE 10.7 mph17.2 kmh 30.61 in1036.6 mb 0.00 in0.0 mm 0.00 in0.0 mm 0.01 in0.3 mm
09:05 PM 72.9°F22.7°C 47.1°F8.4°C 40% 4.5 mph N7.2 kmh N 6.0 mph9.7 kmh 30.16 in1021.3 mb 0.00 in0.0 mm 0.00 in0.0 mm 0.01 in0.3 mm
09:15 PM 72.9°F22.7°C 47.8°F8.8°C 41% 6.0 mph NNE9.7 kmh NNE 12.1 mph19.5 kmh 30.60 in1036.2 mb 0.00 in0.0 mm 0.00 in0.0 mm 0.01 in0.3 mm
09:30 PM 72.7°F22.6°C 47.6°F8.7°C 41% 7.6 mph NNE12.2 kmh NNE 10.7 mph17.2 kmh 30.61 in1036.6 mb 0.00 in0.0 mm 0.00 in0.0 mm 0.01 in0.3 mm
09:35 PM 72.7°F22.6°C 47.6°F8.7°C 41% 6.0 mph NE9.7 kmh NE 7.6 mph12.2 kmh 30.16 in1021.3 mb 0.00 in0.0 mm 0.00 in0.0 mm 0.01 in0.3 mm
09:45 PM 72.5°F22.5°C 48.1°F8.9°C 42% 6.0 mph NE9.7 kmh NE 13.0 mph20.9 kmh 30.60 in1036.2 mb 0.00 in0.0 mm 0.00 in0.0 mm 0.01 in0.3 mm
10:00 PM 72.3°F22.4°C 49.8°F9.9°C 45% 7.6 mph NE12.2 kmh NE 11.4 mph18.3 kmh 30.60 in1036.2 mb 0.00 in0.0 mm 0.00 in0.0 mm 0.01 in0.3 mm
10:05 PM 72.3°F22.4°C 49.8°F9.9°C 45% 6.0 mph NE9.7 kmh NE 7.6 mph12.2 kmh 30.15 in1021.0 mb 0.00 in0.0 mm 0.00 in0.0 mm 0.01 in0.3 mm
10:15 PM 72.1°F22.3°C 49.6°F9.8°C 45% 6.0 mph NE9.7 kmh NE 9.8 mph15.8 kmh 30.60 in1036.2 mb 0.00 in0.0 mm 0.00 in0.0 mm 0.01 in0.3 mm
10:30 PM 72.0°F22.2°C 49.5°F9.7°C 45% 8.3 mph NE13.4 kmh NE 11.4 mph18.3 kmh 30.59 in1035.9 mb 0.00 in0.0 mm 0.00 in0.0 mm 0.01 in0.3 mm
10:35 PM 72.0°F22.2°C 49.5°F9.7°C 45% 6.9 mph E11.1 kmh E 9.8 mph15.8 kmh 30.15 in1021.0 mb 0.00 in0.0 mm 0.00 in0.0 mm 0.01 in0.3 mm
10:45 PM 71.4°F21.9°C 50.1°F10.1°C 47% 6.9 mph E11.1 kmh E 11.4 mph18.3 kmh 30.59 in1035.9 mb 0.00 in0.0 mm 0.00 in0.0 mm 0.01 in0.3 mm
11:00 PM 70.7°F21.5°C 52.2°F11.2°C 52% 13.0 mph E20.9 kmh E 16.8 mph27.0 kmh 30.60 in1036.2 mb 0.00 in0.0 mm 0.00 in0.0 mm 0.01 in0.3 mm
11:05 PM 71.1°F21.7°C 52.0°F11.1°C 51% 8.3 mph SE13.4 kmh SE 13.6 mph21.9 kmh 30.15 in1021.0 mb 0.00 in0.0 mm 0.00 in0.0 mm 0.01 in0.3 mm
11:15 PM 68.5°F20.3°C 55.0°F12.8°C 62% 3.8 mph E6.1 kmh E 13.0 mph20.9 kmh 30.60 in1036.2 mb 0.00 in0.0 mm 0.00 in0.0 mm 0.01 in0.3 mm
11:30 PM 66.7°F19.3°C 55.0°F12.8°C 66% 6.9 mph NE11.1 kmh NE 15.9 mph25.6 kmh 30.58 in1035.6 mb 0.00 in0.0 mm 0.00 in0.0 mm 0.01 in0.3 mm
11:35 PM 66.9°F19.4°C 54.8°F12.7°C 65% 11.4 mph NE18.3 kmh NE 15.9 mph25.6 kmh 30.14 in1020.7 mb 0.00 in0.0 mm 0.00 in0.0 mm 0.01 in0.3 mm
11:45 PM 66.2°F19.0°C 54.9°F12.7°C 67% 8.3 mph NE13.4 kmh NE 11.4 mph18.3 kmh 30.58 in1035.6 mb 0.00 in0.0 mm 0.00 in0.0 mm 0.01 in0.3 mm